Route Details

Aircraft Information
Group: Hub to Hub
Types: B744, MD11, B763, B762, B752, B738
Route Data
Distance: 1946nm
Duration: 5h 34m
Origin METAR: KIAD 100352Z 00000KT 10SM CLR M01/M04 A3028 RMK AO2 SLP256 T10061044
Dest. METAR: KONT 100353Z 00000KT 10SM CLR 11/06 A3011 RMK AO2 SLP199 T01060056
Freight Data
(for Dec 10, 2022)
Load Factor:
61%
Manifested Cargo: 109,137lbs
Financial History
Total Freight: 124,904lbs
Average Load: 0lbs/flt
Fuel Used: 153,767lbs
Avg. Fuel Used: 0lbs/flt
Fuel Expense: $82,675
Avg. Fuel Expense: $0
Avg. Fuel Cost: $0/lbs
Total Gross Income: $338,490
Pilot Pay: $438
Total Expenses: $67,774
Total Revenue: $184,302
Average Revenue: $0

Capitol Logistics 419




KIAD
Washington Dulles International Airport
Dulles, Virginia
KONT
Ontario International Airport
Ontario, California